createdAt,value
2022-09-14T00:01:21.220Z,52.90
2022-09-14T00:02:20.270Z,52.70
2022-09-14T00:03:22.609Z,52.50
2022-09-14T00:04:25.051Z,52.50
2022-09-14T00:05:27.186Z,51.60
2022-09-14T00:06:30.459Z,51.60
2022-09-14T00:07:32.658Z,51.80
2022-09-14T00:08:35.299Z,52.00
2022-09-14T00:09:37.459Z,52.00
2022-09-14T00:10:43.718Z,52.30
2022-09-14T00:11:45.934Z,53.00
2022-09-14T00:12:48.100Z,53.30
2022-09-14T00:13:51.706Z,53.30
2022-09-14T00:14:53.869Z,53.30
2022-09-14T00:15:56.124Z,53.40
2022-09-14T00:16:58.381Z,53.50
2022-09-14T00:18:00.666Z,53.40
2022-09-14T00:19:05.997Z,53.30
2022-09-14T00:20:08.532Z,53.30
2022-09-14T00:21:11.595Z,53.60
2022-09-14T00:22:13.796Z,53.50
2022-09-14T00:23:15.977Z,53.50
2022-09-14T00:24:18.188Z,53.40
2022-09-14T00:25:20.344Z,53.50
2022-09-14T00:26:22.925Z,53.70
2022-09-14T00:27:25.066Z,53.70
2022-09-14T00:28:27.250Z,53.70
2022-09-14T00:29:30.146Z,53.60
2022-09-14T00:30:33.033Z,53.30
2022-09-14T00:31:37.170Z,53.70
2022-09-14T00:32:39.576Z,53.80
2022-09-14T00:33:42.658Z,53.90
2022-09-14T00:34:44.886Z,53.60
2022-09-14T00:35:47.111Z,53.80
2022-09-14T00:36:50.236Z,54.00
2022-09-14T00:37:52.411Z,54.40
2022-09-14T00:38:58.044Z,54.20
2022-09-14T00:40:00.406Z,54.20
2022-09-14T00:41:03.878Z,54.10
2022-09-14T00:42:06.137Z,53.80
2022-09-14T00:43:13.744Z,52.60
2022-09-14T00:44:15.851Z,52.60
2022-09-14T00:45:19.377Z,52.60
2022-09-14T00:46:21.878Z,52.90
2022-09-14T00:47:24.199Z,53.00
2022-09-14T00:48:27.102Z,53.10
2022-09-14T00:49:33.619Z,53.00
2022-09-14T00:50:35.997Z,53.20
2022-09-14T00:51:39.784Z,53.10
2022-09-14T00:52:43.883Z,52.90
2022-09-14T00:53:46.256Z,52.90
2022-09-14T00:54:51.115Z,52.70
2022-09-14T00:55:54.091Z,52.70
2022-09-14T00:56:58.123Z,52.70
2022-09-14T00:58:01.126Z,52.60
2022-09-14T00:59:06.442Z,52.60
2022-09-14T01:00:10.671Z,52.60
2022-09-14T01:01:13.241Z,52.70
2022-09-14T01:02:15.844Z,52.70
2022-09-14T01:03:18.093Z,52.80
2022-09-14T01:04:20.356Z,52.80
2022-09-14T01:05:31.272Z,52.80
2022-09-14T01:06:38.405Z,52.70
2022-09-14T01:07:42.003Z,52.80
2022-09-14T01:08:56.179Z,53.20
2022-09-14T01:10:07.169Z,52.80
2022-09-14T01:11:31.484Z,52.80
2022-09-14T01:12:36.471Z,52.80
2022-09-14T01:13:41.491Z,52.70
2022-09-14T01:15:02.024Z,52.60
2022-09-14T01:16:23.948Z,52.60
2022-09-14T01:17:30.526Z,52.70
2022-09-14T01:18:53.720Z,53.10
2022-09-14T01:20:14.501Z,53.00
2022-09-14T01:21:20.526Z,53.00
2022-09-14T01:22:46.626Z,52.90
2022-09-14T01:24:07.421Z,52.30
2022-09-14T01:25:09.606Z,52.20
2022-09-14T01:26:29.677Z,52.30
2022-09-14T01:27:41.535Z,52.30
2022-09-14T01:28:46.695Z,52.70
2022-09-14T01:30:02.038Z,53.10
2022-09-14T01:31:07.203Z,53.40
2022-09-14T01:32:15.890Z,53.80
2022-09-14T01:33:21.189Z,54.30
2022-09-14T01:34:31.451Z,54.70
2022-09-14T01:35:41.594Z,54.70
2022-09-14T01:36:46.023Z,54.40
2022-09-14T01:37:54.835Z,54.70
2022-09-14T01:38:57.110Z,54.70
2022-09-14T01:40:05.533Z,54.90
2022-09-14T01:41:10.232Z,54.80
2022-09-14T01:42:12.990Z,54.90
2022-09-14T01:43:20.761Z,55.00
2022-09-14T01:44:25.534Z,54.90
2022-09-14T01:45:28.105Z,54.70
2022-09-14T01:46:34.022Z,54.40
2022-09-14T01:47:56.026Z,55.20
2022-09-14T01:49:11.010Z,55.30
2022-09-14T01:50:16.304Z,55.60
2022-09-14T01:51:20.895Z,55.70
2022-09-14T01:52:43.302Z,55.70
2022-09-14T01:53:47.962Z,55.50
2022-09-14T01:54:52.444Z,56.00
2022-09-14T01:56:00.591Z,56.00
2022-09-14T01:57:12.133Z,55.00
2022-09-14T01:58:18.419Z,54.60
2022-09-14T01:59:25.147Z,54.60
2022-09-14T02:00:28.151Z,54.80
2022-09-14T02:01:33.576Z,56.40
2022-09-14T02:02:40.391Z,56.60
2022-09-14T02:03:46.496Z,54.90
2022-09-14T02:04:54.359Z,54.60
2022-09-14T02:06:10.480Z,54.80
2022-09-14T02:07:13.070Z,55.90
2022-09-14T02:08:15.527Z,56.20
2022-09-14T02:09:20.018Z,56.30
2022-09-14T02:10:24.333Z,56.60
2022-09-14T02:11:26.540Z,56.40
2022-09-14T02:12:28.842Z,56.20
2022-09-14T02:13:31.371Z,56.60
2022-09-14T02:14:33.672Z,56.80
2022-09-14T02:15:36.555Z,56.80
2022-09-14T02:16:40.146Z,56.90
2022-09-14T02:17:43.302Z,57.00
2022-09-14T02:18:45.634Z,56.00
2022-09-14T02:19:49.971Z,56.30
2022-09-14T02:20:54.740Z,56.80
2022-09-14T02:21:56.991Z,56.90
2022-09-14T02:22:59.720Z,56.80
2022-09-14T02:24:02.552Z,56.70
2022-09-14T02:25:04.974Z,57.20
2022-09-14T02:26:07.137Z,57.30
2022-09-14T02:27:09.358Z,57.50
2022-09-14T02:28:11.707Z,57.30
2022-09-14T02:29:14.028Z,56.30
2022-09-14T02:30:16.972Z,56.00
2022-09-14T02:31:34.930Z,56.70
2022-09-14T02:32:48.964Z,56.70
2022-09-14T02:33:56.672Z,56.80
2022-09-14T02:35:11.175Z,57.10
2022-09-14T02:36:19.459Z,57.60
2022-09-14T02:37:32.730Z,57.80
2022-09-14T02:38:41.828Z,58.00
2022-09-14T02:39:50.523Z,57.90
2022-09-14T02:41:01.994Z,58.00
2022-09-14T02:42:14.755Z,58.00
2022-09-14T02:43:17.036Z,57.80
2022-09-14T02:44:28.057Z,57.70
2022-09-14T02:45:30.478Z,57.50
2022-09-14T02:46:43.527Z,57.70
2022-09-14T02:47:49.158Z,57.70
2022-09-14T02:49:01.730Z,57.10
2022-09-14T02:50:12.023Z,56.40
2022-09-14T02:51:17.045Z,56.10
2022-09-14T02:52:39.051Z,56.60
2022-09-14T02:53:47.774Z,57.30
2022-09-14T02:54:59.091Z,56.10
2022-09-14T02:56:04.462Z,56.00
2022-09-14T02:57:06.829Z,56.10
2022-09-14T02:58:10.323Z,56.20
2022-09-14T02:59:12.663Z,57.10
2022-09-14T03:00:14.881Z,57.80
2022-09-14T03:01:19.063Z,57.60
2022-09-14T03:02:21.572Z,56.40
2022-09-14T03:03:23.877Z,57.20
2022-09-14T03:04:26.107Z,56.90
2022-09-14T03:05:28.386Z,56.30
2022-09-14T03:06:30.735Z,56.40
2022-09-14T03:07:34.185Z,56.50
2022-09-14T03:08:36.614Z,56.60
2022-09-14T03:09:38.829Z,56.60
2022-09-14T03:10:44.700Z,56.60
2022-09-14T03:11:47.068Z,56.80
2022-09-14T03:12:49.475Z,56.90
2022-09-14T03:13:51.750Z,56.90
2022-09-14T03:14:54.312Z,56.70
2022-09-14T03:15:56.943Z,56.50
2022-09-14T03:16:59.260Z,56.50
2022-09-14T03:18:01.614Z,56.90
2022-09-14T03:19:05.847Z,56.40
2022-09-14T03:20:08.393Z,56.20
2022-09-14T03:21:12.141Z,56.40
2022-09-14T03:22:14.561Z,56.70
2022-09-14T03:23:16.909Z,56.70
2022-09-14T03:24:20.425Z,56.80
2022-09-14T03:25:25.568Z,57.50
2022-09-14T03:26:29.603Z,57.60
2022-09-14T03:27:31.805Z,57.60
2022-09-14T03:28:33.957Z,57.80
2022-09-14T03:29:37.351Z,58.00
2022-09-14T03:30:42.017Z,57.20
2022-09-14T03:31:44.375Z,56.50
2022-09-14T03:32:46.892Z,56.60
2022-09-14T03:33:56.580Z,56.50
2022-09-14T03:34:59.183Z,56.70
2022-09-14T03:36:08.987Z,57.70
2022-09-14T03:37:11.617Z,57.80
2022-09-14T03:38:13.819Z,57.80
2022-09-14T03:39:15.995Z,57.90
2022-09-14T03:40:21.895Z,57.90
2022-09-14T03:41:24.715Z,56.70
2022-09-14T03:42:27.107Z,56.50
2022-09-14T03:43:29.527Z,56.70
2022-09-14T03:44:31.948Z,56.80
2022-09-14T03:45:36.316Z,56.80
2022-09-14T03:46:38.777Z,56.80
2022-09-14T03:47:41.180Z,56.60
2022-09-14T03:48:43.526Z,56.50
2022-09-14T03:49:45.703Z,56.60
2022-09-14T03:50:48.020Z,56.70
2022-09-14T03:51:50.540Z,56.80
2022-09-14T03:52:52.758Z,57.00
2022-09-14T03:53:55.081Z,56.90
2022-09-14T03:54:57.394Z,56.80
2022-09-14T03:55:59.633Z,57.60
2022-09-14T03:57:01.955Z,56.70
2022-09-14T03:58:04.267Z,56.70
2022-09-14T03:59:08.629Z,57.40
2022-09-14T04:00:11.490Z,57.60
2022-09-14T04:01:15.524Z,57.90
2022-09-14T04:02:18.017Z,57.90
2022-09-14T04:03:21.173Z,57.80
2022-09-14T04:04:23.627Z,57.30
2022-09-14T04:05:25.933Z,57.30
2022-09-14T04:06:28.675Z,57.20
2022-09-14T04:07:30.902Z,57.10
2022-09-14T04:08:34.599Z,57.30
2022-09-14T04:09:38.426Z,57.90
2022-09-14T04:10:40.849Z,58.00
2022-09-14T04:11:43.265Z,58.20
2022-09-14T04:12:45.728Z,58.50
2022-09-14T04:13:48.291Z,58.60
2022-09-14T04:14:50.676Z,58.40
2022-09-14T04:15:56.974Z,58.40
2022-09-14T04:16:59.357Z,56.80
2022-09-14T04:18:01.663Z,58.20
2022-09-14T04:19:04.097Z,58.50
2022-09-14T04:20:06.625Z,58.60
2022-09-14T04:21:12.998Z,58.70
2022-09-14T04:22:15.883Z,58.90
2022-09-14T04:23:18.278Z,58.90
2022-09-14T04:24:20.951Z,57.10
2022-09-14T04:25:23.658Z,57.10
2022-09-14T04:26:27.085Z,58.20
2022-09-14T04:27:29.935Z,59.00
2022-09-14T04:28:32.133Z,59.10
2022-09-14T04:29:34.461Z,58.30
2022-09-14T04:30:36.707Z,57.70
2022-09-14T04:31:39.247Z,57.90
2022-09-14T04:32:41.637Z,58.00
2022-09-14T04:33:44.247Z,58.70
2022-09-14T04:34:48.074Z,59.10
2022-09-14T04:36:28.179Z,58.70
2022-09-14T04:37:31.234Z,58.80
2022-09-14T04:38:33.953Z,57.90
2022-09-14T04:39:36.930Z,57.80
2022-09-14T04:40:43.248Z,58.30
2022-09-14T04:41:46.548Z,57.50
2022-09-14T04:42:49.402Z,57.20
2022-09-14T04:43:52.960Z,57.90
2022-09-14T04:44:55.876Z,58.20
2022-09-14T04:46:08.940Z,58.20
2022-09-14T04:47:11.632Z,58.40
2022-09-14T04:48:13.792Z,58.60
2022-09-14T04:49:18.751Z,59.10
2022-09-14T04:50:21.006Z,58.30
2022-09-14T04:51:29.512Z,58.40
2022-09-14T04:52:32.904Z,58.70
2022-09-14T04:53:36.803Z,58.80
2022-09-14T04:54:39.785Z,58.70
2022-09-14T04:55:42.442Z,57.70
2022-09-14T04:56:45.603Z,58.50
2022-09-14T04:57:48.308Z,58.20
2022-09-14T04:58:53.010Z,58.60
2022-09-14T04:59:55.769Z,58.60
2022-09-14T05:01:05.496Z,58.10
2022-09-14T05:02:08.452Z,58.50
2022-09-14T05:03:11.115Z,58.60
2022-09-14T05:04:13.895Z,58.30
2022-09-14T05:05:16.645Z,58.50
2022-09-14T05:06:46.142Z,58.50
2022-09-14T05:07:48.980Z,58.50
2022-09-14T05:08:52.226Z,58.50
2022-09-14T05:09:54.435Z,58.50
2022-09-14T05:10:57.603Z,58.50
2022-09-14T05:12:00.347Z,58.50
2022-09-14T05:13:03.546Z,58.80
2022-09-14T05:14:06.504Z,58.30
2022-09-14T05:15:09.306Z,58.90
2022-09-14T05:16:18.764Z,58.80
2022-09-14T05:17:21.103Z,58.60
2022-09-14T05:18:23.458Z,58.50
2022-09-14T05:19:25.776Z,58.50
2022-09-14T05:20:28.159Z,58.60
2022-09-14T05:21:32.132Z,58.60
2022-09-14T05:22:34.971Z,58.70
2022-09-14T05:23:37.498Z,58.80
2022-09-14T05:24:39.839Z,58.60
2022-09-14T05:25:42.239Z,58.40
2022-09-14T05:26:45.093Z,58.60
2022-09-14T05:27:47.812Z,59.00
2022-09-14T05:28:51.971Z,58.90
2022-09-14T05:29:54.243Z,59.50
2022-09-14T05:30:56.821Z,59.60
2022-09-14T05:31:59.157Z,59.70
2022-09-14T05:33:01.552Z,59.90
2022-09-14T05:34:03.929Z,59.90
2022-09-14T05:35:06.445Z,60.20
2022-09-14T05:36:09.155Z,60.20
2022-09-14T05:37:12.409Z,60.30
2022-09-14T05:38:14.790Z,60.40
2022-09-14T05:39:22.520Z,60.70
2022-09-14T05:40:25.581Z,60.80
2022-09-14T05:41:28.119Z,60.70
2022-09-14T05:42:30.469Z,61.20
2022-09-14T05:43:33.362Z,61.30
2022-09-14T05:44:35.779Z,61.60
2022-09-14T05:45:38.220Z,61.80
2022-09-14T05:46:41.125Z,62.20
2022-09-14T05:47:43.480Z,62.00
2022-09-14T05:48:45.788Z,62.10
2022-09-14T05:49:48.102Z,62.20
2022-09-14T05:50:57.539Z,62.20
2022-09-14T05:51:59.806Z,62.20
2022-09-14T05:53:02.104Z,62.10
2022-09-14T05:54:09.371Z,62.00
2022-09-14T05:55:11.698Z,62.70
2022-09-14T05:56:14.119Z,62.50
2022-09-14T05:57:16.417Z,62.40
2022-09-14T05:58:18.616Z,62.30
2022-09-14T05:59:20.865Z,62.10
2022-09-14T06:00:23.082Z,62.10
2022-09-14T06:01:26.438Z,62.10
2022-09-14T06:02:28.705Z,62.40
2022-09-14T06:03:30.968Z,62.40
2022-09-14T06:04:33.182Z,62.30
2022-09-14T06:05:35.808Z,62.30
2022-09-14T06:06:38.138Z,62.40
2022-09-14T06:07:40.398Z,62.30
2022-09-14T06:08:43.043Z,62.40
2022-09-14T06:09:45.257Z,62.60
2022-09-14T06:10:47.436Z,62.70
2022-09-14T06:11:49.937Z,62.60
2022-09-14T06:12:55.462Z,62.60
2022-09-14T06:13:57.912Z,62.90
2022-09-14T06:15:00.074Z,62.80
2022-09-14T06:16:06.193Z,63.40
2022-09-14T06:17:08.358Z,63.40
2022-09-14T06:18:10.717Z,63.40
2022-09-14T06:19:15.111Z,63.70
2022-09-14T06:20:18.842Z,63.20
2022-09-14T06:21:22.103Z,63.50
2022-09-14T06:22:24.382Z,63.10
2022-09-14T06:23:27.557Z,63.70
2022-09-14T06:24:29.866Z,64.00
2022-09-14T06:25:32.194Z,64.00
2022-09-14T06:26:34.581Z,64.00
2022-09-14T06:27:37.135Z,63.80
2022-09-14T06:28:39.462Z,63.90
2022-09-14T06:29:41.852Z,64.10
2022-09-14T06:30:44.399Z,64.30
2022-09-14T06:31:46.704Z,64.40
2022-09-14T06:32:48.858Z,64.20
2022-09-14T06:33:51.747Z,64.60
2022-09-14T06:34:54.101Z,64.50
2022-09-14T06:35:57.501Z,64.50
2022-09-14T06:36:59.656Z,64.30
2022-09-14T06:38:02.278Z,64.20
2022-09-14T06:39:05.432Z,63.90
2022-09-14T06:40:08.879Z,64.30
2022-09-14T06:41:13.281Z,63.90
2022-09-14T06:42:16.579Z,63.90
2022-09-14T06:43:19.907Z,64.20
2022-09-14T06:44:23.047Z,63.80
2022-09-14T06:45:26.374Z,63.70
2022-09-14T06:46:30.593Z,64.10
2022-09-14T06:47:34.252Z,64.00
2022-09-14T06:48:38.080Z,64.30
2022-09-14T06:49:40.559Z,64.20
2022-09-14T06:50:42.879Z,64.50
2022-09-14T06:51:46.787Z,64.40
2022-09-14T06:52:49.020Z,64.30
2022-09-14T06:53:51.590Z,64.20
2022-09-14T06:54:53.849Z,64.50
2022-09-14T06:55:59.189Z,64.10
2022-09-14T06:57:01.906Z,64.80
2022-09-14T06:58:04.431Z,64.80
2022-09-14T06:59:07.944Z,64.90
2022-09-14T07:00:10.581Z,64.90
2022-09-14T07:01:16.999Z,65.30
2022-09-14T07:02:19.724Z,64.90
2022-09-14T07:03:22.804Z,65.20
2022-09-14T07:04:25.463Z,65.30
2022-09-14T07:05:27.889Z,65.40
2022-09-14T07:06:31.433Z,65.30
2022-09-14T07:07:33.784Z,65.60
2022-09-14T07:08:37.035Z,65.30
2022-09-14T07:09:39.348Z,65.20
2022-09-14T07:10:43.123Z,65.30
2022-09-14T07:11:45.755Z,65.50
2022-09-14T07:12:48.164Z,65.20
2022-09-14T07:13:50.603Z,65.00
2022-09-14T07:14:52.998Z,65.00
2022-09-14T07:15:55.750Z,64.90
2022-09-14T07:16:58.119Z,64.60
2022-09-14T07:18:00.490Z,65.00
2022-09-14T07:19:04.252Z,65.60
2022-09-14T07:20:07.665Z,65.80
2022-09-14T07:21:11.444Z,65.50
2022-09-14T07:22:13.842Z,65.70
2022-09-14T07:23:16.264Z,65.40
2022-09-14T07:24:18.870Z,65.60
2022-09-14T07:25:21.194Z,65.70
2022-09-14T07:26:24.794Z,66.20
2022-09-14T07:27:27.231Z,66.80
2022-09-14T07:28:30.857Z,66.90
2022-09-14T07:29:34.779Z,66.60
2022-09-14T07:30:38.078Z,66.80
2022-09-14T07:31:42.220Z,67.10
2022-09-14T07:32:44.576Z,66.90
2022-09-14T07:33:47.364Z,67.60
2022-09-14T07:34:50.022Z,67.70
2022-09-14T07:35:53.056Z,68.20
2022-09-14T07:36:55.381Z,68.30
2022-09-14T07:37:57.980Z,68.30
2022-09-14T07:39:00.818Z,68.50
2022-09-14T07:40:03.368Z,68.60
2022-09-14T07:41:06.144Z,67.90
2022-09-14T07:42:08.413Z,68.90
2022-09-14T07:43:10.848Z,70.20
2022-09-14T07:44:14.171Z,70.00
2022-09-14T07:45:16.826Z,69.70
2022-09-14T07:46:19.943Z,69.30
2022-09-14T07:47:22.292Z,68.70
2022-09-14T07:48:24.630Z,69.20
2022-09-14T07:49:27.164Z,69.80
2022-09-14T07:50:29.789Z,69.20
2022-09-14T07:51:33.066Z,69.40
2022-09-14T07:52:38.648Z,69.70
2022-09-14T07:53:45.580Z,69.80
2022-09-14T07:54:47.933Z,70.30
2022-09-14T07:55:50.329Z,71.10
2022-09-14T07:56:52.575Z,71.50
2022-09-14T07:57:56.758Z,71.40
2022-09-14T07:59:23.785Z,70.30
2022-09-14T08:00:23.071Z,71.80
2022-09-14T08:01:26.210Z,71.30
2022-09-14T08:02:29.214Z,71.00
2022-09-14T08:03:31.789Z,70.00
2022-09-14T08:04:39.294Z,70.30
2022-09-14T08:05:42.171Z,70.20
2022-09-14T08:06:44.616Z,69.40
2022-09-14T08:07:47.087Z,71.00
2022-09-14T08:08:50.728Z,70.50
2022-09-14T08:09:53.138Z,70.20
2022-09-14T08:10:57.839Z,70.40
2022-09-14T08:12:00.527Z,70.80
2022-09-14T08:13:04.001Z,69.60
2022-09-14T08:14:11.372Z,70.20
2022-09-14T08:15:13.878Z,70.50
2022-09-14T08:16:16.412Z,70.30
2022-09-14T08:17:22.098Z,69.40
2022-09-14T08:18:24.734Z,69.00
2022-09-14T08:19:27.210Z,70.10
2022-09-14T08:20:30.073Z,70.10
2022-09-14T08:21:33.153Z,68.80
2022-09-14T08:22:35.844Z,68.60
2022-09-14T08:23:38.765Z,69.20
2022-09-14T08:24:42.627Z,68.30
2022-09-14T08:25:45.181Z,68.10
2022-09-14T08:26:48.079Z,67.20
2022-09-14T08:27:50.416Z,68.30
2022-09-14T08:28:53.798Z,67.00
2022-09-14T08:29:56.122Z,67.90
2022-09-14T08:31:05.884Z,68.70
2022-09-14T08:32:10.914Z,68.00
2022-09-14T08:33:13.252Z,67.20
2022-09-14T08:34:16.118Z,66.70
2022-09-14T08:35:24.052Z,66.80
2022-09-14T08:36:38.865Z,66.00
2022-09-14T08:37:41.207Z,63.80
2022-09-14T08:38:43.823Z,63.10
2022-09-14T08:39:50.911Z,63.00
2022-09-14T08:40:54.058Z,62.50
2022-09-14T08:41:57.653Z,62.50
2022-09-14T08:43:02.881Z,63.50
2022-09-14T08:44:16.557Z,63.70
2022-09-14T08:45:18.961Z,67.30
2022-09-14T08:46:39.315Z,67.20
2022-09-14T08:47:42.049Z,66.40
2022-09-14T08:48:47.470Z,67.30
2022-09-14T08:49:51.815Z,66.10
2022-09-14T08:50:54.075Z,65.30
2022-09-14T08:51:56.308Z,64.30
2022-09-14T08:52:59.428Z,62.90
2022-09-14T08:54:01.720Z,62.80
2022-09-14T08:55:22.512Z,63.80
2022-09-14T08:56:26.459Z,61.90
2022-09-14T08:57:41.652Z,60.70
2022-09-14T08:58:48.562Z,61.80
2022-09-14T09:00:13.100Z,61.10
2022-09-14T09:01:23.026Z,60.80
2022-09-14T09:02:27.983Z,63.60
2022-09-14T09:03:48.712Z,62.20
2022-09-14T09:04:53.618Z,60.60
2022-09-14T09:06:16.171Z,64.10
2022-09-14T09:07:28.557Z,61.20
2022-09-14T09:08:36.905Z,60.20
2022-09-14T09:09:41.941Z,60.10
2022-09-14T09:10:44.828Z,62.20
2022-09-14T09:11:49.339Z,61.10
2022-09-14T09:12:56.475Z,60.80
2022-09-14T09:13:59.217Z,64.70
2022-09-14T09:15:03.001Z,64.90
2022-09-14T09:16:07.704Z,68.20
2022-09-14T09:17:15.396Z,64.80
2022-09-14T09:18:26.324Z,64.60
2022-09-14T09:19:34.492Z,60.70
2022-09-14T09:20:43.044Z,63.00
2022-09-14T09:21:45.973Z,61.90
2022-09-14T09:22:52.277Z,61.70
2022-09-14T09:24:04.648Z,66.60
2022-09-14T09:25:13.296Z,63.60
2022-09-14T09:26:28.857Z,62.50
2022-09-14T09:27:31.036Z,62.10
2022-09-14T09:28:33.692Z,62.70
2022-09-14T09:29:35.882Z,61.90
2022-09-14T09:30:45.519Z,61.90
2022-09-14T09:31:52.365Z,61.90
2022-09-14T09:33:23.488Z,61.10
2022-09-14T09:34:40.850Z,64.70
2022-09-14T09:35:49.910Z,62.10
2022-09-14T09:37:00.931Z,64.10
2022-09-14T09:38:08.862Z,63.70
2022-09-14T09:39:12.234Z,63.20
2022-09-14T09:40:26.060Z,63.70
2022-09-14T09:41:29.971Z,64.70
2022-09-14T09:42:32.186Z,62.90
2022-09-14T09:43:48.866Z,63.30
2022-09-14T09:45:04.121Z,62.60
2022-09-14T09:46:07.918Z,64.20
2022-09-14T09:47:10.266Z,66.00
2022-09-14T09:48:13.646Z,65.40
2022-09-14T09:49:18.049Z,64.10
2022-09-14T09:50:21.444Z,66.10
2022-09-14T09:51:24.204Z,64.40
2022-09-14T09:52:26.995Z,63.70
2022-09-14T09:53:29.260Z,62.40
2022-09-14T09:54:32.364Z,64.10
2022-09-14T09:55:38.812Z,63.10
2022-09-14T09:56:55.287Z,63.40
2022-09-14T09:57:57.582Z,64.00
2022-09-14T09:58:59.837Z,63.50
2022-09-14T10:00:09.614Z,62.30
2022-09-14T10:01:28.301Z,62.40
2022-09-14T10:02:31.591Z,63.90
2022-09-14T10:03:37.511Z,62.60
2022-09-14T10:04:56.136Z,62.60
2022-09-14T10:06:02.848Z,62.40
2022-09-14T10:07:05.166Z,62.70
2022-09-14T10:08:15.076Z,61.90
2022-09-14T10:09:18.611Z,61.50
2022-09-14T10:10:23.735Z,63.70
2022-09-14T10:11:29.286Z,63.10
2022-09-14T10:12:31.948Z,62.60
2022-09-14T10:13:38.572Z,61.80
2022-09-14T10:14:41.874Z,62.20
2022-09-14T10:15:44.161Z,63.40
2022-09-14T10:16:47.459Z,62.40
2022-09-14T10:18:06.255Z,61.40
2022-09-14T10:19:13.653Z,60.70
2022-09-14T10:20:21.651Z,60.90
2022-09-14T10:21:25.629Z,62.00
2022-09-14T10:22:31.807Z,63.70
2022-09-14T10:23:36.272Z,62.20
2022-09-14T10:24:38.568Z,63.30
2022-09-14T10:25:40.846Z,64.40
2022-09-14T10:26:43.228Z,63.90
2022-09-14T10:27:53.030Z,64.10
2022-09-14T10:29:15.276Z,63.60
2022-09-14T10:30:18.950Z,62.40
2022-09-14T10:31:24.925Z,62.00
2022-09-14T10:32:27.164Z,61.90
2022-09-14T10:33:29.703Z,61.00
2022-09-14T10:34:31.980Z,60.70
2022-09-14T10:36:00.238Z,61.30
2022-09-14T10:37:10.748Z,64.70
2022-09-14T10:38:15.409Z,63.60
2022-09-14T10:39:25.426Z,62.60
2022-09-14T10:40:38.456Z,62.10
2022-09-14T10:41:49.042Z,62.90
2022-09-14T10:42:54.166Z,61.70
2022-09-14T10:44:19.469Z,62.10
2022-09-14T10:45:29.713Z,63.10
2022-09-14T10:46:55.013Z,61.60
2022-09-14T10:48:04.062Z,61.20
2022-09-14T10:49:16.833Z,61.20
2022-09-14T10:50:22.911Z,61.80
2022-09-14T10:51:30.650Z,61.10
2022-09-14T10:52:47.761Z,60.80
2022-09-14T10:54:01.261Z,63.20
2022-09-14T10:55:24.222Z,61.70
2022-09-14T10:56:42.227Z,62.00
2022-09-14T10:57:56.216Z,61.50
2022-09-14T10:59:17.205Z,60.80
2022-09-14T11:00:20.183Z,60.50
2022-09-14T11:01:34.174Z,60.30
2022-09-14T11:02:59.220Z,59.90
2022-09-14T11:04:19.952Z,60.80
2022-09-14T11:05:35.576Z,61.10
2022-09-14T11:06:40.576Z,60.00
2022-09-14T11:07:51.878Z,60.10
2022-09-14T11:09:00.495Z,60.10
2022-09-14T11:10:03.415Z,62.60
2022-09-14T11:11:23.721Z,62.00
2022-09-14T11:12:31.167Z,61.10
2022-09-14T11:13:33.379Z,60.90
2022-09-14T11:14:42.405Z,61.00
2022-09-14T11:15:44.607Z,61.20
2022-09-14T11:16:53.956Z,61.80
2022-09-14T11:17:56.125Z,61.20
2022-09-14T11:19:16.909Z,60.80
2022-09-14T11:20:42.443Z,60.00
2022-09-14T11:22:05.343Z,62.70
2022-09-14T11:23:19.746Z,61.90
2022-09-14T11:24:30.870Z,61.00
2022-09-14T11:25:39.434Z,62.40
2022-09-14T11:26:59.437Z,61.30
2022-09-14T11:28:05.399Z,60.40
2022-09-14T11:29:26.171Z,61.80
2022-09-14T11:30:32.852Z,62.00
2022-09-14T11:31:38.034Z,60.80
2022-09-14T11:32:47.716Z,62.40
2022-09-14T11:34:03.776Z,60.70
2022-09-14T11:35:11.940Z,61.00
2022-09-14T11:36:23.756Z,60.80
2022-09-14T11:37:44.568Z,60.90
2022-09-14T11:38:51.185Z,61.60
2022-09-14T11:40:01.997Z,61.80
2022-09-14T11:41:04.216Z,61.20
2022-09-14T11:42:15.420Z,61.30
2022-09-14T11:43:20.467Z,61.30
2022-09-14T11:44:24.621Z,60.80
2022-09-14T11:45:31.826Z,60.20
2022-09-14T11:46:36.017Z,59.80
2022-09-14T11:47:41.883Z,60.10
2022-09-14T11:49:04.435Z,60.10
2022-09-14T11:50:20.969Z,59.00
2022-09-14T11:51:34.428Z,59.50
2022-09-14T11:52:36.598Z,60.70
2022-09-14T11:53:40.591Z,60.00
2022-09-14T11:54:46.865Z,60.00
2022-09-14T11:55:50.613Z,60.80
2022-09-14T11:56:55.947Z,60.50
2022-09-14T11:57:59.867Z,60.00
2022-09-14T11:59:04.905Z,60.30
2022-09-14T12:00:23.039Z,60.00
2022-09-14T12:01:27.009Z,60.20
2022-09-14T12:02:29.292Z,60.00
2022-09-14T12:03:59.848Z,60.40
2022-09-14T12:05:05.317Z,59.40
2022-09-14T12:06:26.067Z,59.60
2022-09-14T12:07:42.160Z,59.10
2022-09-14T12:08:44.380Z,59.20
2022-09-14T12:09:46.641Z,59.10
2022-09-14T12:11:00.758Z,58.90
2022-09-14T12:12:03.360Z,58.70
2022-09-14T12:13:08.375Z,58.80
2022-09-14T12:14:22.467Z,59.30
2022-09-14T12:15:24.645Z,59.40
2022-09-14T12:16:28.262Z,59.00
2022-09-14T12:17:39.993Z,59.10
2022-09-14T12:18:45.168Z,58.90
2022-09-14T12:19:49.073Z,59.00
2022-09-14T12:21:01.634Z,59.30
2022-09-14T12:22:33.002Z,59.40
2022-09-14T12:23:38.222Z,59.00
2022-09-14T12:24:40.474Z,59.40
2022-09-14T12:25:54.605Z,59.10
2022-09-14T12:26:56.810Z,58.90
2022-09-14T12:27:59.069Z,58.80
2022-09-14T12:29:04.897Z,58.70
2022-09-14T12:30:25.622Z,59.40
2022-09-14T12:31:47.909Z,58.90
2022-09-14T12:32:50.203Z,58.70
2022-09-14T12:34:11.193Z,58.80
2022-09-14T12:35:32.002Z,58.90
2022-09-14T12:36:37.034Z,58.60
2022-09-14T12:37:39.369Z,58.50
2022-09-14T12:38:43.123Z,58.50
2022-09-14T12:40:05.310Z,58.80
2022-09-14T12:41:10.346Z,58.60
2022-09-14T12:42:28.856Z,59.10
2022-09-14T12:43:34.390Z,59.20
2022-09-14T12:44:36.718Z,58.60
2022-09-14T12:45:48.518Z,58.60
2022-09-14T12:46:50.886Z,58.80
2022-09-14T12:47:53.124Z,58.90
2022-09-14T12:48:58.727Z,59.00
2022-09-14T12:50:10.022Z,59.00
2022-09-14T12:51:15.399Z,58.80
2022-09-14T12:52:23.861Z,61.60
2022-09-14T12:53:29.733Z,61.70
2022-09-14T12:54:55.017Z,62.50
2022-09-14T12:56:01.858Z,62.00
2022-09-14T12:57:22.892Z,61.60
2022-09-14T12:58:56.614Z,62.10
2022-09-14T13:00:05.369Z,62.30
2022-09-14T13:01:21.955Z,63.20
2022-09-14T13:02:43.293Z,63.60
2022-09-14T13:03:50.985Z,64.10
2022-09-14T13:04:54.530Z,64.60
2022-09-14T13:05:56.718Z,63.40
2022-09-14T13:07:00.136Z,64.20
2022-09-14T13:08:08.715Z,64.50
2022-09-14T13:09:21.971Z,64.80
2022-09-14T13:10:31.460Z,63.50
2022-09-14T13:11:36.970Z,64.40
2022-09-14T13:12:41.708Z,64.10
2022-09-14T13:13:44.293Z,64.70
2022-09-14T13:14:47.902Z,65.00
2022-09-14T13:15:55.836Z,64.90
2022-09-14T13:16:59.633Z,65.00
2022-09-14T13:18:01.842Z,64.90
2022-09-14T13:19:08.994Z,65.20
2022-09-14T13:20:18.037Z,64.60
2022-09-14T13:21:23.568Z,64.80
2022-09-14T13:22:27.358Z,64.90
2022-09-14T13:23:40.762Z,65.20
2022-09-14T13:24:43.942Z,64.80
2022-09-14T13:25:46.286Z,64.70
2022-09-14T13:26:48.744Z,64.90
2022-09-14T13:27:50.933Z,65.10
2022-09-14T13:28:53.972Z,65.20
2022-09-14T13:29:58.938Z,65.40
2022-09-14T13:31:01.616Z,65.50
2022-09-14T13:32:04.280Z,65.90
2022-09-14T13:33:06.958Z,65.70
2022-09-14T13:34:17.993Z,65.90
2022-09-14T13:35:24.999Z,66.10
2022-09-14T13:36:29.707Z,66.10
2022-09-14T13:37:31.992Z,66.30
2022-09-14T13:38:36.069Z,66.40
2022-09-14T13:39:40.183Z,66.40
2022-09-14T13:40:42.806Z,66.90
2022-09-14T13:41:45.764Z,66.10
2022-09-14T13:42:48.332Z,66.10
2022-09-14T13:43:54.012Z,65.80
2022-09-14T13:44:56.258Z,66.10
2022-09-14T13:45:58.582Z,65.80
2022-09-14T13:47:02.723Z,65.60
2022-09-14T13:48:05.599Z,65.40
2022-09-14T13:49:07.967Z,65.40
2022-09-14T13:50:12.515Z,65.80
2022-09-14T13:51:15.222Z,65.50
2022-09-14T13:52:19.647Z,64.40
2022-09-14T13:53:41.770Z,64.80
2022-09-14T13:54:43.937Z,65.30
2022-09-14T13:55:46.778Z,64.90
2022-09-14T13:57:08.934Z,65.00
2022-09-14T13:58:11.075Z,64.70
2022-09-14T13:59:14.238Z,64.80
2022-09-14T14:00:16.730Z,64.00
2022-09-14T14:01:28.500Z,64.80
2022-09-14T14:02:32.707Z,64.50
2022-09-14T14:04:01.105Z,64.40
2022-09-14T14:05:05.011Z,64.50
2022-09-14T14:06:25.937Z,63.30
2022-09-14T14:07:32.276Z,64.00
2022-09-14T14:08:36.925Z,64.40
2022-09-14T14:09:43.845Z,63.40
2022-09-14T14:10:48.557Z,64.00